Portada
METAR-TAF:

METAR-TAF

Aeropuertos :

Aeropuerto Internacional de St. Catherine

Santa Catalina, Egipto

latitud: 28-41-07N, longitud: 034-03-45E, altitud: 1331 m

Observación

El informe se hizo hace 2 horas y 54 minutos, a las 08:00 UTC
Viento 7 kt del oeste-noroeste
Temperatura 9°C
Humedad 71%
Presión 1024 hPa
Visibilidad 10 km o más
Nubes dispersas a una altura de 2500 ft

METAR: HESC 200800Z 30007KT 9999 SCT025 09/04 Q1024 NOSIG

Hora: 12:54 (10:54 UTC)

Pronóstico

El informe se hizo hace 5 horas y 54 minutos, a las 05:00 UTC
Pronóstico válido del 20 a las 06 UTC al 21 a las 12 UTC
Viento 12 kt del noroeste
Visibilidad 10 km o más
sin nubes por debajo de 1500 m y sin presencia de cumulonimbus.

TAF: HESC 200500Z 2006/2112 32012KT CAVOK

Observaciones y pronósticos meteorológicos de más de 4000 aeropuertos (mensajes METAR y TAF).

Los puntos amarillos y rojos representan las estaciones disponibles.

Ponga el ratón en el punto deseado para ver el nombre de la estación.

Haga clic para ver las observaciones y los pronósticos meteorológicos.

Para cambiar el mapa : haga clic en los botones verdes con una cruz de color negro para hacer un zoom, en el botón verde con un guión para alejar o en las flechas verdes para mapas adyacentes.


METAR-TAF: